Main page
METAR-TAF:

METAR-TAF

Airports :

Brive–Dordogne Valley Airport

Brive-la-Gaillarde, France

latitude: 45-02-28N, longitude: 001-28-59E, elevation: 311 m

Current weather observation

The report was made 33 minutes ago, at 23:30 UTC
Wind 3 kt from the North/Northwest
Temperature 4°C
Humidity 93%
Pressure 1009 hPa
Visibility 10 km or more
Overcast at a height of 3500 ft

METAR: LFSL 172330Z AUTO 33003KT 9999 OVC035 04/03 Q1009

Time: 01:03 (00:03 UTC)

Forecast

The report was made 5 hours and 2 minutes ago, at 19:01 UTC
Forecast valid from 17 at 19 UTC to 18 at 03 UTC
Wind 2 kt from variable directions
Visibility 10 km or more
Broken clouds at a height of 2000 ft
Probability 30% :
Temporary
from 17 at 19 UTC to 17 at 22 UTC
Broken clouds at a height of 1200 ft
Temporary
from 17 at 21 UTC to 18 at 03 UTC
Visibility: 3000 m
mist

TAF: LFSL 171901Z 1719/1803 VRB02KT 9999 BKN020 PROB30 TEMPO 1719/1722 BKN012 TEMPO 1721/1803 3000 BR

Weather observations and forecasts of more than 4000 airports (METAR and TAF reports).

The available stations are represented by yellow and red dots on the map.

Hover mouse over dot to see the name of the station.

Then click to see weather observations and forecasts.

To change the map : click on the green buttons with a black cross to zoom in, on the green button with a dash to zoom out, or on the green arrows for adjacent maps.


METAR-TAF: